Time;durP1;ratioP1;P1;durP2;ratioP2;P2;SDS_P1;SDS_P2;PMS_P1;PMS_P2;Temp;Humidity;BMP_temperature;BMP_pressure;BME280_temperature;BME280_humidity;BME280_pressure;Samples;Min_cycle;Max_cycle;Signal;HPM_P1;HPM_P2
2023/06/24 00:01:06;;;;;;;11.77;9.15;;;;;;;17.02;100.00;101480.19;4978484;28;20059;-51
2023/06/24 00:03:37;;;;;;;13.77;9.95;;;;;;;17.03;100.00;101481.03;4980283;28;20065;-55
2023/06/24 00:06:04;;;;;;;13.73;10.55;;;;;;;17.04;100.00;101485.38;4979210;28;20150;-54
2023/06/24 00:08:33;;;;;;;15.65;10.65;;;;;;;17.04;100.00;101493.34;4974154;28;20226;-56
2023/06/24 00:11:02;;;;;;;13.75;10.77;;;;;;;17.04;100.00;101494.19;4999045;28;20074;-51
2023/06/24 00:13:29;;;;;;;12.80;10.73;;;;;;;17.03;100.00;101492.50;4986655;28;20604;-52
2023/06/24 00:15:57;;;;;;;12.60;10.88;;;;;;;17.02;100.00;101503.25;4982537;28;20441;-50
2023/06/24 00:18:24;;;;;;;15.32;11.27;;;;;;;16.98;100.00;101496.47;4961791;28;20070;-53
2023/06/24 00:20:51;;;;;;;12.88;9.88;;;;;;;16.96;100.00;101496.56;4971752;28;20160;-52
2023/06/24 00:23:24;;;;;;;25.65;11.95;;;;;;;16.95;100.00;101497.53;4977614;28;20078;-53
2023/06/24 00:25:52;;;;;;;16.27;11.52;;;;;;;16.92;100.00;101509.22;4979331;28;20046;-54
2023/06/24 00:28:20;;;;;;;11.68;10.48;;;;;;;16.88;100.00;101502.41;4976090;28;20627;-53
2023/06/24 00:30:48;;;;;;;15.90;11.80;;;;;;;16.85;100.00;101515.97;4976139;28;20468;-50
2023/06/24 00:33:19;;;;;;;20.42;12.00;;;;;;;16.84;100.00;101505.41;4981406;28;20082;-51
2023/06/24 00:35:47;;;;;;;17.00;13.27;;;;;;;16.84;100.00;101516.03;4982266;28;20058;-52
2023/06/24 00:38:14;;;;;;;14.77;13.27;;;;;;;16.80;100.00;101512.78;4978115;28;20096;-52
2023/06/24 00:40:42;;;;;;;16.80;14.05;;;;;;;16.78;100.00;101508.50;4983320;28;20094;-50
2023/06/24 00:43:09;;;;;;;18.15;14.75;;;;;;;16.75;100.00;101500.75;4977236;28;20050;-52
2023/06/24 00:45:37;;;;;;;18.00;15.50;;;;;;;16.74;100.00;101507.88;4975116;28;20097;-56
2023/06/24 00:48:05;;;;;;;23.63;17.13;;;;;;;16.74;100.00;101512.34;4985159;28;20047;-50
2023/06/24 00:50:32;;;;;;;26.00;17.20;;;;;;;16.71;100.00;101508.06;4977238;28;20054;-51
2023/06/24 00:53:00;;;;;;;21.27;17.48;;;;;;;16.68;100.00;101509.13;4986104;28;20121;-52
2023/06/24 00:55:28;;;;;;;24.75;18.35;;;;;;;16.64;100.00;101504.97;4978756;28;20047;-52
2023/06/24 00:57:57;;;;;;;25.05;18.67;;;;;;;16.63;100.00;101513.94;4976615;28;20042;-54
2023/06/24 01:00:24;;;;;;;25.15;17.83;;;;;;;16.60;100.00;101522.09;4976087;28;20093;-52
2023/06/24 01:02:51;;;;;;;21.40;17.65;;;;;;;16.60;100.00;101526.56;4972257;28;20078;-55
2023/06/24 01:05:23;;;;;;;27.63;17.65;;;;;;;16.58;100.00;101518.72;4974734;28;20466;-55
2023/06/24 01:07:54;;;;;;;22.23;16.42;;;;;;;16.58;100.00;101515.22;4973972;28;20134;-53
2023/06/24 01:10:23;;;;;;;23.05;17.08;;;;;;;16.51;100.00;101516.59;4977593;28;20054;-54
2023/06/24 01:12:50;;;;;;;20.60;17.95;;;;;;;16.50;100.00;101510.44;4972586;28;20050;-53
2023/06/24 01:15:19;;;;;;;24.48;17.75;;;;;;;16.47;100.00;101513.28;4972413;28;20690;-54
2023/06/24 01:18:02;;;;;;;23.02;18.27;;;;;;;16.44;100.00;101516.19;4976371;28;20137;-53
2023/06/24 01:20:36;;;;;;;24.95;16.73;;;;;;;16.39;100.00;101505.00;4982723;28;20419;-55
2023/06/24 01:23:45;;;;;;;24.27;17.88;;;;;;;16.36;100.00;101505.22;4956626;28;20401;-53
2023/06/24 01:26:50;;;;;;;21.55;17.17;;;;;;;16.29;100.00;101499.47;4973115;28;20046;-52
2023/06/24 01:29:45;;;;;;;27.00;17.42;;;;;;;16.24;100.00;101492.78;4974602;28;20055;-53
2023/06/24 01:32:36;;;;;;;25.33;16.55;;;;;;;16.20;100.00;101494.78;4964218;28;20118;-54
2023/06/24 01:35:07;;;;;;;24.17;17.55;;;;;;;16.15;100.00;101502.22;4968265;28;20669;-53
2023/06/24 01:37:45;;;;;;;20.08;15.77;;;;;;;16.11;100.00;101498.06;4973563;28;20055;-53
2023/06/24 01:40:17;;;;;;;22.67;17.15;;;;;;;16.07;100.00;101502.72;4977041;28;20173;-51
2023/06/24 01:42:45;;;;;;;17.30;15.52;;;;;;;16.07;100.00;101489.47;4980317;28;20055;-54
2023/06/24 01:45:16;;;;;;;20.40;16.25;;;;;;;16.06;100.00;101495.72;4970829;28;20487;-53
2023/06/24 01:47:46;;;;;;;19.58;15.98;;;;;;;16.03;100.00;101493.31;4975237;28;20055;-54
2023/06/24 01:50:14;;;;;;;17.48;14.85;;;;;;;16.02;100.00;101494.22;4973794;28;20054;-53
2023/06/24 01:52:44;;;;;;;16.13;13.45;;;;;;;16.00;100.00;101492.66;4973021;28;20680;-52
2023/06/24 01:55:13;;;;;;;17.50;15.20;;;;;;;15.98;100.00;101489.22;4971727;28;20138;-56
2023/06/24 01:57:40;;;;;;;17.58;15.68;;;;;;;15.94;100.00;101486.81;4982934;28;20055;-55
2023/06/24 02:00:09;;;;;;;22.10;15.07;;;;;;;15.91;100.00;101486.16;4989045;28;20066;-51
2023/06/24 02:02:37;;;;;;;21.15;15.13;;;;;;;15.93;100.00;101489.53;4971144;28;20047;-52
2023/06/24 02:05:06;;;;;;;17.52;15.25;;;;;;;15.92;100.00;101488.69;4975266;28;20059;-56
2023/06/24 02:07:34;;;;;;;21.95;16.95;;;;;;;15.90;100.00;101489.78;4977428;28;20063;-54
2023/06/24 02:10:03;;;;;;;20.88;15.40;;;;;;;15.90;100.00;101487.13;4979084;28;20141;-55
2023/06/24 02:12:31;;;;;;;18.02;16.10;;;;;;;15.87;100.00;101492.63;4973190;28;20062;-55
2023/06/24 02:14:59;;;;;;;17.25;14.93;;;;;;;15.84;100.00;101487.50;4971990;28;20051;-55
2023/06/24 02:17:29;;;;;;;16.80;15.02;;;;;;;15.82;100.00;101484.13;4968147;28;20053;-52
2023/06/24 02:19:57;;;;;;;18.90;15.77;;;;;;;15.79;100.00;101497.59;4972264;28;20059;-50
2023/06/24 02:22:24;;;;;;;17.13;15.32;;;;;;;15.75;100.00;101493.44;4972628;28;20485;-56
2023/06/24 02:24:52;;;;;;;20.30;15.10;;;;;;;15.74;100.00;101487.28;4972123;28;20129;-55
2023/06/24 02:27:20;;;;;;;17.73;13.98;;;;;;;15.72;100.00;101494.50;4981506;28;20054;-53
2023/06/24 02:29:47;;;;;;;20.25;15.32;;;;;;;15.71;100.00;101498.09;4977752;28;20073;-54
2023/06/24 02:32:15;;;;;;;17.52;14.45;;;;;;;15.68;100.00;101493.00;4977574;28;20050;-54
2023/06/24 02:34:42;;;;;;;17.02;13.57;;;;;;;15.65;100.00;101491.41;4968779;28;20129;-53
2023/06/24 02:37:09;;;;;;;15.80;14.20;;;;;;;15.63;100.00;101490.63;4973736;28;20506;-50
2023/06/24 02:39:39;;;;;;;21.95;13.50;;;;;;;15.60;100.00;101488.19;4968814;28;20060;-55
2023/06/24 02:42:06;;;;;;;15.35;13.82;;;;;;;15.57;100.00;101503.44;4977813;28;20165;-52
2023/06/24 02:44:34;;;;;;;15.10;13.63;;;;;;;15.55;100.00;101503.56;4981219;28;20156;-54
2023/06/24 02:47:01;;;;;;;17.15;13.32;;;;;;;15.53;100.00;101512.56;4978973;28;20125;-54
2023/06/24 02:49:29;;;;;;;21.35;14.48;;;;;;;15.49;100.00;101501.31;4980853;28;20061;-53
2023/06/24 02:51:57;;;;;;;13.90;12.45;;;;;;;15.48;100.00;101504.91;4973718;28;20499;-54
2023/06/24 02:54:24;;;;;;;18.95;13.85;;;;;;;15.45;100.00;101507.78;4983768;28;20063;-53
2023/06/24 02:56:52;;;;;;;15.10;13.50;;;;;;;15.44;100.00;101508.69;4969038;28;20512;-56
2023/06/24 02:59:22;;;;;;;16.80;13.27;;;;;;;15.43;100.00;101517.63;4979233;28;20080;-54
2023/06/24 03:01:50;;;;;;;17.83;14.07;;;;;;;15.43;100.00;101525.56;4981149;28;20056;-55
2023/06/24 03:04:19;;;;;;;21.48;14.55;;;;;;;15.43;100.00;101518.47;4975586;28;20101;-54
2023/06/24 03:06:46;;;;;;;17.95;13.75;;;;;;;15.46;100.00;101528.03;4978343;28;20125;-55
2023/06/24 03:09:15;;;;;;;19.13;14.85;;;;;;;15.43;100.00;101523.78;4979759;28;20062;-57
2023/06/24 03:11:43;;;;;;;14.90;12.45;;;;;;;15.44;100.00;101525.50;4987615;28;20058;-53
2023/06/24 03:14:11;;;;;;;18.67;13.63;;;;;;;15.42;100.00;101531.84;4978288;28;20063;-54
2023/06/24 03:16:38;;;;;;;17.05;13.05;;;;;;;15.43;100.00;101534.38;4980317;28;20129;-53
2023/06/24 03:19:06;;;;;;;14.63;12.85;;;;;;;15.45;100.00;101534.31;4979684;28;20527;-53
2023/06/24 03:21:33;;;;;;;14.93;13.35;;;;;;;15.44;100.00;101535.22;4966141;28;20416;-55
2023/06/24 03:24:00;;;;;;;21.38;13.38;;;;;;;15.44;100.00;101540.53;4977574;28;20054;-54
2023/06/24 03:26:33;;;;;;;18.63;13.55;;;;;;;15.46;100.00;101543.97;4980420;28;20076;-52
2023/06/24 03:29:00;;;;;;;13.68;12.20;;;;;;;15.47;100.00;101545.66;4985123;28;20043;-51
2023/06/24 03:31:28;;;;;;;22.20;14.05;;;;;;;15.45;100.00;101543.13;4974137;28;20058;-52
2023/06/24 03:33:55;;;;;;;15.40;12.68;;;;;;;15.44;100.00;101541.41;4981715;28;20042;-53
2023/06/24 03:36:24;;;;;;;14.05;12.55;;;;;;;15.44;100.00;101545.84;4982414;28;20065;-55
2023/06/24 03:38:51;;;;;;;16.02;13.23;;;;;;;15.45;100.00;101551.06;4983885;28;20946;-53
2023/06/24 03:41:18;;;;;;;16.75;13.35;;;;;;;15.43;100.00;101549.47;4981224;28;20523;-52
2023/06/24 03:43:46;;;;;;;13.65;11.70;;;;;;;15.39;100.00;101548.78;4977177;28;20129;-53
2023/06/24 03:46:13;;;;;;;15.60;11.90;;;;;;;15.36;100.00;101553.47;4977098;28;20064;-57
2023/06/24 03:48:41;;;;;;;14.43;12.27;;;;;;;15.30;100.00;101546.72;4991300;28;20077;-54
2023/06/24 03:51:08;;;;;;;16.98;13.00;;;;;;;15.27;100.00;101554.91;4982777;28;20062;-54
2023/06/24 03:53:35;;;;;;;17.45;13.63;;;;;;;15.20;100.00;101549.13;4983847;28;20053;-54
2023/06/24 03:56:03;;;;;;;18.20;11.27;;;;;;;15.19;100.00;101550.09;4979213;28;20062;-53
2023/06/24 03:58:30;;;;;;;15.25;12.43;;;;;;;15.19;100.00;101547.44;4987236;28;20054;-55
2023/06/24 04:00:59;;;;;;;17.23;13.65;;;;;;;15.16;100.00;101562.69;4979348;28;20070;-55
2023/06/24 04:03:27;;;;;;;15.48;12.93;;;;;;;15.13;100.00;101568.16;4973710;28;20062;-55
2023/06/24 04:05:57;;;;;;;22.52;14.20;;;;;;;15.15;100.00;101567.13;4971266;28;20823;-52
2023/06/24 04:08:29;;;;;;;18.65;13.90;;;;;;;15.22;100.00;101569.41;4982717;28;20073;-54
2023/06/24 04:11:03;;;;;;;18.52;13.68;;;;;;;15.23;100.00;101557.84;4978015;28;20137;-52
2023/06/24 04:13:30;;;;;;;21.08;12.90;;;;;;;15.24;100.00;101559.56;4991093;28;20492;-52
2023/06/24 04:16:01;;;;;;;17.17;12.85;;;;;;;15.22;100.00;101554.34;4973550;28;20051;-53
2023/06/24 04:18:29;;;;;;;18.23;12.20;;;;;;;15.20;100.00;101557.09;4989053;28;20060;-53
2023/06/24 04:20:57;;;;;;;14.90;12.32;;;;;;;15.13;100.00;101550.47;4974365;28;20070;-53
2023/06/24 04:23:24;;;;;;;14.65;13.15;;;;;;;15.10;100.00;101555.97;4977621;28;20062;-52
2023/06/24 04:25:52;;;;;;;14.25;11.13;;;;;;;15.10;100.00;101558.63;4967673;28;20086;-52
2023/06/24 04:28:19;;;;;;;15.70;13.27;;;;;;;15.09;100.00;101567.53;4974386;28;20073;-54
2023/06/24 04:30:46;;;;;;;17.58;13.00;;;;;;;15.12;100.00;101572.63;4986660;28;20096;-51
2023/06/24 04:33:13;;;;;;;20.52;12.77;;;;;;;15.13;100.00;101569.06;4986031;28;20074;-55
2023/06/24 04:35:41;;;;;;;15.50;12.68;;;;;;;15.12;100.00;101574.44;4985823;28;20072;-51
2023/06/24 04:38:08;;;;;;;15.65;13.55;;;;;;;15.12;100.00;101577.94;4979822;28;20062;-51
2023/06/24 04:40:35;;;;;;;17.10;13.38;;;;;;;15.14;100.00;101580.50;4979071;28;20062;-50
2023/06/24 04:43:03;;;;;;;16.70;13.90;;;;;;;15.13;100.00;101579.66;4978237;28;20761;-53
2023/06/24 04:45:30;;;;;;;18.50;12.80;;;;;;;15.16;100.00;101581.25;4975044;28;20057;-50
2023/06/24 04:47:57;;;;;;;14.02;11.60;;;;;;;15.24;100.00;101580.78;4982829;28;20057;-55
2023/06/24 04:50:24;;;;;;;18.45;12.77;;;;;;;15.24;100.00;101578.97;4997696;28;20146;-51
2023/06/24 04:52:54;;;;;;;14.27;12.82;;;;;;;15.32;100.00;101586.44;4984251;28;20070;-55
2023/06/24 04:55:22;;;;;;;17.17;13.52;;;;;;;15.36;100.00;101591.47;4984180;28;20046;-52
2023/06/24 04:57:49;;;;;;;16.83;12.52;;;;;;;15.43;100.00;101597.22;4984189;28;20061;-52
2023/06/24 05:00:17;;;;;;;13.63;12.18;;;;;;;15.47;100.00;101595.22;4973398;28;20448;-54
2023/06/24 05:02:45;;;;;;;18.60;11.80;;;;;;;15.54;100.00;101600.06;4981448;28;20105;-52
2023/06/24 05:05:12;;;;;;;13.27;11.57;;;;;;;15.60;100.00;101590.84;4983453;28;20145;-56
2023/06/24 05:07:40;;;;;;;16.67;12.30;;;;;;;15.65;100.00;101591.41;4985778;28;20054;-51
2023/06/24 05:10:07;;;;;;;21.02;12.70;;;;;;;15.73;100.00;101598.91;4981025;28;20132;-53
2023/06/24 05:12:34;;;;;;;15.13;12.25;;;;;;;15.81;100.00;101605.41;4980221;28;20158;-53
2023/06/24 05:15:02;;;;;;;14.60;11.65;;;;;;;15.86;100.00;101600.66;4984013;28;20130;-53
2023/06/24 05:17:29;;;;;;;14.45;11.00;;;;;;;15.97;100.00;101596.44;4982504;28;20089;-51
2023/06/24 05:19:57;;;;;;;11.48;10.32;;;;;;;16.03;100.00;101596.88;4981920;28;20059;-52
2023/06/24 05:22:24;;;;;;;13.55;11.27;;;;;;;16.07;100.00;101595.69;4978840;28;20062;-52
2023/06/24 05:24:51;;;;;;;13.05;10.82;;;;;;;16.10;100.00;101598.16;4983272;28;20053;-55
2023/06/24 05:27:19;;;;;;;13.15;11.07;;;;;;;16.16;100.00;101596.91;4988430;28;20140;-54
2023/06/24 05:29:46;;;;;;;13.55;11.57;;;;;;;16.25;100.00;101603.41;4980279;28;20045;-52
2023/06/24 05:32:13;;;;;;;16.80;10.82;;;;;;;16.36;100.00;101592.91;4988041;28;20097;-54
2023/06/24 05:34:41;;;;;;;11.98;10.07;;;;;;;16.42;100.00;101605.78;4983775;28;20049;-54
2023/06/24 05:37:08;;;;;;;15.13;10.15;;;;;;;16.40;100.00;101603.22;4977061;28;20061;-52
2023/06/24 05:39:35;;;;;;;13.50;10.98;;;;;;;16.42;100.00;101611.09;4983786;28;21308;-52
2023/06/24 05:42:03;;;;;;;15.57;11.23;;;;;;;16.45;100.00;101611.75;4973622;28;20517;-55
2023/06/24 05:44:31;;;;;;;13.25;9.65;;;;;;;16.56;100.00;101605.69;4985653;28;20061;-54
2023/06/24 05:46:58;;;;;;;14.25;11.30;;;;;;;16.61;100.00;101619.50;4975752;28;20050;-56
2023/06/24 05:49:25;;;;;;;14.48;11.48;;;;;;;16.64;100.00;101626.44;4979186;28;20062;-56
2023/06/24 05:51:53;;;;;;;13.95;9.32;;;;;;;16.69;100.00;101622.50;4972418;28;20094;-53
2023/06/24 05:54:20;;;;;;;18.65;10.65;;;;;;;16.82;100.00;101629.66;4978755;28;20070;-52
2023/06/24 05:56:47;;;;;;;11.93;10.38;;;;;;;16.94;100.00;101627.00;4969537;28;20054;-54
2023/06/24 05:59:15;;;;;;;17.58;10.15;;;;;;;17.05;100.00;101620.09;4976945;28;20050;-52
2023/06/24 06:01:42;;;;;;;18.83;10.75;;;;;;;17.09;100.00;101625.06;4974828;28;20406;-50
2023/06/24 06:04:09;;;;;;;14.23;10.55;;;;;;;17.14;100.00;101622.09;4977836;28;20046;-54
2023/06/24 06:06:36;;;;;;;12.90;10.23;;;;;;;17.15;100.00;101624.63;4982511;28;20057;-52
2023/06/24 06:09:04;;;;;;;17.50;10.45;;;;;;;17.14;100.00;101616.78;4985403;28;20084;-52
2023/06/24 06:11:32;;;;;;;10.27;9.15;;;;;;;17.17;100.00;101617.41;4980144;28;20696;-53
2023/06/24 06:13:59;;;;;;;13.20;9.35;;;;;;;17.24;100.00;101616.97;4984383;28;20154;-52
2023/06/24 06:16:28;;;;;;;13.30;9.45;;;;;;;17.26;100.00;101613.25;4990671;28;20129;-51
2023/06/24 06:18:55;;;;;;;24.60;10.48;;;;;;;17.22;100.00;101619.75;4980825;28;20416;-53
2023/06/24 06:21:23;;;;;;;13.30;9.95;;;;;;;17.23;100.00;101615.25;4981036;28;20061;-54
2023/06/24 06:23:51;;;;;;;11.55;8.88;;;;;;;17.27;100.00;101622.06;4988563;28;20096;-51
2023/06/24 06:26:18;;;;;;;14.77;10.15;;;;;;;17.18;100.00;101619.09;4987413;28;20059;-52
2023/06/24 06:28:47;;;;;;;15.52;9.18;;;;;;;17.25;100.00;101622.19;4985538;28;20141;-53
2023/06/24 06:31:15;;;;;;;10.38;8.52;;;;;;;17.35;100.00;101625.03;4984532;28;20050;-53
2023/06/24 06:33:43;;;;;;;38.25;10.93;;;;;;;17.36;100.00;101624.06;4979556;28;20050;-55
2023/06/24 06:36:11;;;;;;;12.57;8.85;;;;;;;17.47;100.00;101618.81;4983995;28;20651;-52
2023/06/24 06:38:38;;;;;;;10.90;9.15;;;;;;;17.57;100.00;101625.19;4982354;28;20141;-53
2023/06/24 06:41:05;;;;;;;12.32;9.60;;;;;;;17.61;100.00;101616.03;4971843;28;20157;-54
2023/06/24 06:43:33;;;;;;;13.38;8.63;;;;;;;17.69;100.00;101616.31;4985189;28;20141;-53
2023/06/24 06:46:00;;;;;;;13.20;8.00;;;;;;;17.80;100.00;101620.88;4976433;28;20126;-50
2023/06/24 06:48:28;;;;;;;14.80;8.70;;;;;;;17.92;100.00;101622.66;4982958;28;20062;-56
2023/06/24 06:50:56;;;;;;;14.68;9.35;;;;;;;18.04;98.96;101618.22;4981443;28;20178;-53
2023/06/24 06:53:23;;;;;;;13.35;9.30;;;;;;;18.03;98.42;101626.34;4979165;28;20145;-51
2023/06/24 06:55:50;;;;;;;10.50;8.35;;;;;;;18.09;97.10;101618.72;4979381;28;20042;-53
2023/06/24 06:58:17;;;;;;;14.43;8.63;;;;;;;18.08;97.33;101618.84;4976268;28;20073;-54
2023/06/24 07:00:45;;;;;;;14.15;8.90;;;;;;;18.10;96.71;101617.78;4985138;28;20050;-50
2023/06/24 07:03:12;;;;;;;10.70;7.25;;;;;;;18.21;95.34;101623.13;4987703;28;20434;-53
2023/06/24 07:05:39;;;;;;;14.75;8.35;;;;;;;18.35;94.75;101618.59;4989051;28;20057;-54
2023/06/24 07:08:07;;;;;;;11.60;7.55;;;;;;;18.50;94.29;101616.56;4982254;28;20053;-52
2023/06/24 07:10:34;;;;;;;12.32;7.70;;;;;;;18.71;94.11;101606.94;4982967;28;20081;-54
2023/06/24 07:13:02;;;;;;;13.60;8.55;;;;;;;18.86;93.04;101608.41;4980987;28;20137;-55
2023/06/24 07:15:29;;;;;;;10.52;7.95;;;;;;;18.95;93.36;101610.34;4987402;28;20141;-54
2023/06/24 07:17:56;;;;;;;10.63;7.38;;;;;;;19.06;93.05;101614.84;4990666;28;20068;-54
2023/06/24 07:20:24;;;;;;;14.35;8.35;;;;;;;18.94;90.84;101613.13;4978056;28;20153;-53
2023/06/24 07:22:51;;;;;;;14.38;8.18;;;;;;;18.69;90.86;101630.22;4981121;28;20485;-52
2023/06/24 07:25:19;;;;;;;14.07;8.40;;;;;;;18.54;91.33;101628.69;4987166;28;20050;-54
2023/06/24 07:27:46;;;;;;;8.65;6.82;;;;;;;18.43;91.82;101626.84;4987035;28;20532;-55
2023/06/24 07:30:13;;;;;;;11.40;6.78;;;;;;;18.59;91.23;101637.19;4974806;28;20385;-55
2023/06/24 07:32:41;;;;;;;14.32;7.38;;;;;;;18.76;90.33;101634.09;4980550;28;20059;-53
2023/06/24 07:35:08;;;;;;;12.13;7.25;;;;;;;18.83;89.80;101637.16;4989380;28;20054;-54
2023/06/24 07:37:35;;;;;;;13.88;8.85;;;;;;;18.80;89.06;101646.25;4984723;28;20137;-53
2023/06/24 07:40:04;;;;;;;10.25;7.20;;;;;;;18.76;87.82;101646.59;4976967;28;20050;-57
2023/06/24 07:42:31;;;;;;;10.15;6.95;;;;;;;18.73;86.02;101653.00;4990417;28;20101;-53
2023/06/24 07:44:58;;;;;;;11.88;6.72;;;;;;;18.72;85.75;101656.63;4978799;28;20598;-53
2023/06/24 07:47:26;;;;;;;11.60;6.10;;;;;;;18.89;83.77;101647.34;4984415;28;20065;-53
2023/06/24 07:49:53;;;;;;;8.30;6.50;;;;;;;18.99;80.62;101642.97;4983847;28;20069;-51
2023/06/24 07:52:20;;;;;;;8.65;6.63;;;;;;;19.17;79.21;101635.34;4987831;28;20058;-52
2023/06/24 07:54:48;;;;;;;11.25;5.85;;;;;;;19.23;77.32;101643.72;4979569;28;20072;-56
2023/06/24 07:57:15;;;;;;;7.53;5.97;;;;;;;19.29;78.59;101652.22;4990708;28;20137;-57
2023/06/24 07:59:42;;;;;;;8.50;5.07;;;;;;;19.42;78.82;101653.78;4980826;28;20061;-53
2023/06/24 08:02:10;;;;;;;7.97;5.35;;;;;;;19.55;76.53;101666.16;4983636;28;20057;-54
2023/06/24 08:04:37;;;;;;;6.95;5.13;;;;;;;19.64;75.44;101660.13;4983598;28;20070;-51
2023/06/24 08:07:05;;;;;;;10.27;5.43;;;;;;;19.70;74.02;101660.47;4982250;28;20130;-51
2023/06/24 08:09:32;;;;;;;5.53;3.92;;;;;;;19.77;72.63;101655.47;4986468;28;20058;-55
2023/06/24 08:11:59;;;;;;;6.18;4.72;;;;;;;19.77;71.34;101650.13;4988043;28;20138;-51
2023/06/24 08:14:27;;;;;;;6.63;4.43;;;;;;;19.95;72.14;101653.13;4982129;28;20635;-55
2023/06/24 08:16:54;;;;;;;11.80;5.40;;;;;;;20.03;72.06;101653.31;4990482;28;20057;-56
2023/06/24 08:19:21;;;;;;;6.15;4.35;;;;;;;20.01;71.98;101655.28;4986077;28;20109;-54
2023/06/24 08:21:48;;;;;;;6.40;4.55;;;;;;;20.00;72.57;101658.09;4977067;28;20138;-51
2023/06/24 08:24:16;;;;;;;10.75;5.00;;;;;;;19.86;70.50;101662.75;4981376;28;20061;-56
2023/06/24 08:31:59;;;;;;;9.98;5.50;;;;;;;20.03;71.74;101665.84;4988358;28;20076;-52
2023/06/24 08:36:05;;;;;;;6.32;4.68;;;;;;;20.04;70.63;101665.72;4983286;28;20046;-51
2023/06/24 08:39:47;;;;;;;7.05;5.22;;;;;;;20.40;69.04;101672.53;4983156;28;20061;-51
2023/06/24 08:42:14;;;;;;;7.60;5.22;;;;;;;20.54;68.84;101668.72;4981965;28;20145;-53
2023/06/24 08:45:32;;;;;;;6.53;4.88;;;;;;;20.51;69.79;101673.47;4973541;28;20050;-52
2023/06/24 08:48:49;;;;;;;15.15;5.07;;;;;;;20.27;68.73;101668.31;4979474;28;20046;-53
2023/06/24 08:51:21;;;;;;;5.32;4.32;;;;;;;20.26;68.11;101672.78;4990386;28;20064;-52
2023/06/24 08:53:49;;;;;;;7.55;4.75;;;;;;;20.39;67.44;101662.78;4974247;28;20066;-56
2023/06/24 08:56:16;;;;;;;6.97;4.00;;;;;;;20.54;67.42;101662.53;4985322;28;20058;-53
2023/06/24 08:58:44;;;;;;;6.10;4.70;;;;;;;20.68;67.61;101660.34;4984783;28;20549;-51
2023/06/24 09:01:11;;;;;;;8.57;4.68;;;;;;;20.69;68.98;101662.03;4975267;28;20134;-52
2023/06/24 09:03:38;;;;;;;11.98;4.50;;;;;;;20.41;67.76;101674.22;4981868;28;20050;-54
2023/06/24 09:06:06;;;;;;;6.15;4.07;;;;;;;20.20;67.77;101676.84;4977457;28;20057;-56
2023/06/24 09:08:35;;;;;;;6.63;4.13;;;;;;;20.33;66.30;101670.47;4981968;28;20061;-52
2023/06/24 09:11:03;;;;;;;8.45;5.03;;;;;;;20.10;66.17;101675.91;4984538;28;20067;-53
2023/06/24 09:13:35;;;;;;;10.32;5.03;;;;;;;20.14;65.83;101677.34;4982722;28;20069;-55
2023/06/24 09:16:13;;;;;;;8.23;4.45;;;;;;;20.35;65.25;101674.69;4980508;28;20050;-57
2023/06/24 09:18:41;;;;;;;6.13;4.93;;;;;;;20.37;65.18;101674.59;4968122;28;20077;-54
2023/06/24 09:21:10;;;;;;;6.15;4.18;;;;;;;20.37;65.50;101679.94;4975634;28;20058;-54
2023/06/24 09:23:38;;;;;;;8.25;4.68;;;;;;;20.34;63.82;101682.88;4980573;28;20050;-55
2023/06/24 09:26:10;;;;;;;6.63;4.38;;;;;;;20.19;65.02;101682.31;4985117;28;20395;-54
2023/06/24 09:28:37;;;;;;;8.55;4.43;;;;;;;20.51;65.92;101674.31;4982990;28;20503;-56
2023/06/24 09:31:08;;;;;;;6.05;5.28;;;;;;;20.75;67.46;101668.69;4981855;28;20049;-53
2023/06/24 09:33:47;;;;;;;7.82;4.07;;;;;;;21.00;66.05;101678.16;4978544;28;20050;-54
2023/06/24 09:36:15;;;;;;;9.13;4.60;;;;;;;21.06;64.96;101666.91;4987946;28;20423;-55
2023/06/24 09:38:46;;;;;;;7.72;4.70;;;;;;;21.08;62.25;101662.28;4968548;28;20053;-53
2023/06/24 09:41:14;;;;;;;5.32;3.88;;;;;;;21.06;62.73;101663.38;4966855;28;20058;-53
2023/06/24 09:43:43;;;;;;;9.10;4.60;;;;;;;21.14;62.56;101653.72;4976688;28;20485;-53
2023/06/24 09:46:11;;;;;;;10.45;4.30;;;;;;;21.12;62.36;101671.75;4982602;28;20054;-52
2023/06/24 09:48:39;;;;;;;7.00;3.70;;;;;;;21.29;59.09;101669.41;4987065;28;20423;-51
2023/06/24 09:51:06;;;;;;;6.57;3.80;;;;;;;21.16;58.23;101673.19;4975570;28;20054;-51
2023/06/24 09:53:35;;;;;;;8.10;4.18;;;;;;;21.24;59.34;101669.81;4987786;28;20058;-50
2023/06/24 09:56:07;;;;;;;11.40;3.63;;;;;;;21.35;61.13;101659.06;4980795;28;20054;-54
2023/06/24 09:58:36;;;;;;;5.22;3.80;;;;;;;21.50;59.39;101670.25;4990898;28;20062;-54
2023/06/24 10:01:04;;;;;;;8.20;4.13;;;;;;;21.28;60.04;101655.19;4985865;28;20066;-51
2023/06/24 10:03:35;;;;;;;6.18;3.83;;;;;;;21.24;60.19;101662.63;4982231;28;20058;-55
2023/06/24 10:06:03;;;;;;;9.43;3.83;;;;;;;21.31;59.49;101646.91;4988077;28;20046;-52
2023/06/24 10:08:31;;;;;;;5.85;3.70;;;;;;;21.46;59.65;101650.91;4987575;28;20532;-50
2023/06/24 10:10:59;;;;;;;3.75;3.20;;;;;;;21.56;57.57;101653.59;4988092;28;20451;-54
2023/06/24 10:13:26;;;;;;;5.13;3.78;;;;;;;21.56;57.23;101650.91;4990832;28;20113;-54
2023/06/24 10:15:55;;;;;;;5.18;3.17;;;;;;;21.57;56.29;101641.94;4981693;28;20663;-55
2023/06/24 10:18:33;;;;;;;8.00;3.50;;;;;;;21.74;56.83;101643.91;4987018;28;20070;-53
2023/06/24 10:21:02;;;;;;;3.80;3.00;;;;;;;21.96;56.87;101644.66;4977374;28;20065;-52
2023/06/24 10:23:40;;;;;;;4.07;3.40;;;;;;;22.05;55.64;101635.78;4984613;28;20053;-52
2023/06/24 10:26:09;;;;;;;7.93;3.30;;;;;;;22.17;55.49;101639.22;4981881;28;20054;-52
2023/06/24 10:29:17;;;;;;;5.88;3.22;;;;;;;22.26;54.88;101645.56;4991042;28;20061;-55
2023/06/24 10:31:47;;;;;;;6.78;2.60;;;;;;;22.16;54.58;101645.56;4988525;28;20051;-53
2023/06/24 10:34:33;;;;;;;5.25;3.10;;;;;;;22.11;53.57;101642.41;4990864;28;20054;-53
2023/06/24 10:37:05;;;;;;;8.80;3.47;;;;;;;22.24;55.97;101637.63;4987468;28;20392;-53
2023/06/24 10:39:39;;;;;;;4.95;3.35;;;;;;;22.30;55.52;101645.13;4981824;28;20060;-53
2023/06/24 10:42:30;;;;;;;4.97;3.33;;;;;;;22.39;56.32;101635.38;4988886;28;20050;-54
2023/06/24 10:44:59;;;;;;;3.85;3.17;;;;;;;22.40;55.99;101621.81;4979399;28;20530;-52
2023/06/24 10:47:28;;;;;;;5.97;3.35;;;;;;;22.47;56.01;101635.53;4981573;28;20471;-53
2023/06/24 10:49:55;;;;;;;4.93;4.03;;;;;;;22.62;56.64;101622.50;4980166;28;20097;-52
2023/06/24 10:52:23;;;;;;;4.00;3.03;;;;;;;22.86;56.50;101622.00;4980413;28;20054;-54
2023/06/24 10:54:51;;;;;;;6.78;3.50;;;;;;;23.00;56.48;101626.94;4986928;28;20046;-54
2023/06/24 10:57:26;;;;;;;4.32;3.17;;;;;;;23.06;55.48;101628.19;4986941;28;20069;-53
2023/06/24 10:59:55;;;;;;;7.82;3.67;;;;;;;23.13;53.37;101624.75;4990666;28;20058;-54
2023/06/24 11:02:25;;;;;;;4.45;3.28;;;;;;;23.22;53.98;101620.34;4983922;28;20057;-52
2023/06/24 11:04:54;;;;;;;8.57;3.85;;;;;;;23.17;54.49;101615.41;4989679;28;20542;-54
2023/06/24 11:07:22;;;;;;;8.57;3.88;;;;;;;22.94;54.33;101623.00;4988433;28;20503;-51
2023/06/24 11:09:51;;;;;;;4.35;3.55;;;;;;;22.83;55.27;101617.78;4987237;28;20076;-54
2023/06/24 11:12:19;;;;;;;4.72;3.53;;;;;;;23.11;56.10;101621.38;4987261;28;20055;-53
2023/06/24 11:14:46;;;;;;;6.63;3.55;;;;;;;23.30;54.00;101622.28;4988382;28;20046;-55
2023/06/24 11:17:13;;;;;;;4.85;3.50;;;;;;;23.41;53.88;101633.66;4986870;28;20359;-51
2023/06/24 11:19:41;;;;;;;5.03;3.17;;;;;;;23.48;52.40;101624.03;4986842;28;20051;-55
2023/06/24 11:22:08;;;;;;;4.97;3.58;;;;;;;23.51;53.41;101617.50;4984993;28;20064;-51
2023/06/24 11:24:36;;;;;;;4.28;3.47;;;;;;;23.61;53.17;101620.13;4987331;28;20069;-55
2023/06/24 11:27:04;;;;;;;4.13;3.53;;;;;;;23.68;52.33;101632.84;4980202;28;20046;-57